Blissville, Massachusetts
Current Conditions -  °F | °C
As of 11:52 PM on Saturday 22 Nov 2014 (Local Time) from KORE Reporting Station
Overcast Overcast  
Wind Chill: 33°   Ceiling: 3200
Heat Index: 39°   Visibility: 10mi
Dew Point: 19°   Wind: 8mph
Humidity: 45%   Direction: 180°S
Pressure: 30.08"   Gusts: NA
Location:  42.614°N, 72.3011°W
Report Text: KORE 230452Z AUTO 18007KT 10SM OVC032 04/M07 A3008 RMK AO2 SLP192 T00391072 400391111
Loading
Personal Weather Stations






























Interactive Weather Map New forecast layout! Learn more

10-Day Weather Forecast

Advertisements
Track Severe Weather on mobile